createdAt,value
2022-11-03T00:01:46.319Z,1.45
2022-11-03T00:04:15.745Z,1.63
2022-11-03T00:06:44.079Z,1.65
2022-11-03T00:09:12.883Z,1.30
2022-11-03T00:11:40.937Z,1.58
2022-11-03T00:14:11.391Z,2.05
2022-11-03T00:16:39.334Z,1.30
2022-11-03T00:19:07.064Z,1.20
2022-11-03T00:21:34.250Z,1.50
2022-11-03T00:24:03.836Z,1.40
2022-11-03T00:26:32.819Z,1.00
2022-11-03T00:29:01.939Z,1.40
2022-11-03T00:31:31.623Z,1.33
2022-11-03T00:34:00.017Z,1.38
2022-11-03T00:36:29.653Z,1.42
2022-11-03T00:38:57.041Z,1.63
2022-11-03T00:41:25.082Z,1.48
2022-11-03T00:43:52.862Z,1.10
2022-11-03T00:46:21.565Z,1.13
2022-11-03T00:48:48.671Z,1.42
2022-11-03T00:51:20.824Z,1.23
2022-11-03T00:53:50.531Z,1.40
2022-11-03T00:56:31.135Z,1.30
2022-11-03T00:58:59.040Z,1.00
2022-11-03T01:01:29.145Z,1.10
2022-11-03T01:04:17.142Z,2.40
2022-11-03T01:06:50.343Z,1.52
2022-11-03T01:09:30.668Z,1.20
2022-11-03T01:12:14.372Z,1.33
2022-11-03T01:14:46.932Z,1.33
2022-11-03T01:17:28.525Z,1.00
2022-11-03T01:19:55.568Z,1.33
2022-11-03T01:22:23.547Z,1.38
2022-11-03T01:24:52.014Z,2.00
2022-11-03T01:27:21.012Z,1.30
2022-11-03T01:29:47.676Z,1.60
2022-11-03T01:32:14.874Z,1.25
2022-11-03T01:34:41.576Z,1.55
2022-11-03T01:37:08.377Z,1.60
2022-11-03T01:39:35.058Z,1.80
2022-11-03T01:42:01.895Z,2.00
2022-11-03T01:44:32.761Z,2.05
2022-11-03T01:47:14.460Z,2.10
2022-11-03T01:49:49.968Z,1.83
2022-11-03T01:52:49.105Z,2.50
2022-11-03T01:55:28.712Z,2.05
2022-11-03T01:58:07.930Z,2.80
2022-11-03T02:00:35.766Z,1.52
2022-11-03T02:03:03.082Z,2.20
2022-11-03T02:05:30.595Z,1.90
2022-11-03T02:08:21.470Z,1.60
2022-11-03T02:10:49.529Z,1.50
2022-11-03T02:13:22.674Z,2.03
2022-11-03T02:15:51.065Z,1.75
2022-11-03T02:18:22.206Z,1.50
2022-11-03T02:20:57.987Z,1.77
2022-11-03T02:23:34.720Z,2.45
2022-11-03T02:26:02.205Z,2.03
2022-11-03T02:28:31.867Z,1.73
2022-11-03T02:31:13.130Z,1.48
2022-11-03T02:33:58.244Z,1.85
2022-11-03T02:36:36.283Z,1.70
2022-11-03T02:39:14.640Z,1.40
2022-11-03T02:41:43.594Z,1.50
2022-11-03T02:44:15.823Z,1.30
2022-11-03T02:46:46.000Z,1.50
2022-11-03T02:49:12.944Z,1.65
2022-11-03T02:51:39.920Z,2.03
2022-11-03T02:54:21.913Z,3.50
2022-11-03T02:56:57.895Z,1.65
2022-11-03T02:59:35.925Z,2.03
2022-11-03T03:02:19.844Z,2.72
2022-11-03T03:04:54.062Z,2.40
2022-11-03T03:07:31.014Z,2.00
2022-11-03T03:10:04.558Z,2.33
2022-11-03T03:12:34.174Z,2.08
2022-11-03T03:15:02.643Z,3.92
2022-11-03T03:17:57.545Z,2.38
2022-11-03T03:20:34.093Z,3.45
2022-11-03T03:23:11.494Z,2.75
2022-11-03T03:25:59.908Z,1.90
2022-11-03T03:28:50.958Z,2.88
2022-11-03T03:31:20.385Z,1.90
2022-11-03T03:33:48.991Z,2.00
2022-11-03T03:36:18.908Z,2.30
2022-11-03T03:38:52.249Z,1.90
2022-11-03T03:41:22.378Z,1.67
2022-11-03T03:43:56.892Z,1.63
2022-11-03T03:46:29.245Z,2.30
2022-11-03T03:48:56.261Z,1.90
2022-11-03T03:51:26.750Z,2.47
2022-11-03T03:53:54.621Z,2.13
2022-11-03T03:56:32.338Z,2.72
2022-11-03T03:58:59.060Z,3.35
2022-11-03T04:01:25.907Z,2.72
2022-11-03T04:03:52.700Z,2.70
2022-11-03T04:06:19.353Z,2.03
2022-11-03T04:08:46.507Z,2.50
2022-11-03T04:11:31.768Z,2.50
2022-11-03T04:14:17.161Z,1.95
2022-11-03T04:17:02.369Z,2.05
2022-11-03T04:19:47.493Z,2.08
2022-11-03T04:22:16.966Z,2.25
2022-11-03T04:24:49.139Z,2.63
2022-11-03T04:27:18.728Z,2.95
2022-11-03T04:29:45.435Z,1.83
2022-11-03T04:32:16.683Z,2.10
2022-11-03T04:34:45.683Z,2.25
2022-11-03T04:37:14.031Z,1.88
2022-11-03T04:39:41.515Z,2.53
2022-11-03T04:42:22.690Z,2.08
2022-11-03T04:44:49.907Z,2.50
2022-11-03T04:47:18.141Z,1.90
2022-11-03T04:49:47.339Z,2.05
2022-11-03T04:52:20.203Z,1.83
2022-11-03T04:54:49.430Z,2.00
2022-11-03T04:57:17.925Z,1.65
2022-11-03T04:59:50.933Z,1.70
2022-11-03T05:02:21.985Z,1.95
2022-11-03T05:04:48.660Z,3.17
2022-11-03T05:07:36.414Z,2.17
2022-11-03T05:10:04.626Z,2.65
2022-11-03T05:12:31.413Z,2.00
2022-11-03T05:14:59.060Z,1.75
2022-11-03T05:17:28.383Z,2.40
2022-11-03T05:19:59.262Z,1.83
2022-11-03T05:22:31.336Z,2.08
2022-11-03T05:25:03.139Z,1.80
2022-11-03T05:27:30.349Z,1.60
2022-11-03T05:30:01.079Z,2.03
2022-11-03T05:32:34.336Z,1.40
2022-11-03T05:35:01.383Z,1.52
2022-11-03T05:37:31.822Z,2.17
2022-11-03T05:40:14.336Z,1.50
2022-11-03T05:42:45.158Z,1.75
2022-11-03T05:45:24.467Z,1.40
2022-11-03T05:47:54.895Z,1.70
2022-11-03T05:50:27.501Z,1.55
2022-11-03T05:52:58.813Z,1.90
2022-11-03T05:55:29.896Z,1.45
2022-11-03T05:58:01.269Z,1.60
2022-11-03T06:00:30.831Z,3.03
2022-11-03T06:02:58.241Z,1.50
2022-11-03T06:05:26.509Z,1.42
2022-11-03T06:07:55.902Z,1.67
2022-11-03T06:10:32.069Z,1.60
2022-11-03T06:13:07.826Z,1.10
2022-11-03T06:15:36.143Z,1.25
2022-11-03T06:18:16.932Z,2.33
2022-11-03T06:20:52.626Z,1.08
2022-11-03T06:23:20.915Z,1.67
2022-11-03T06:25:49.346Z,1.27
2022-11-03T06:28:20.994Z,1.20
2022-11-03T06:30:49.079Z,1.55
2022-11-03T06:33:22.301Z,1.70
2022-11-03T06:38:24.045Z,1.63
2022-11-03T06:40:52.779Z,1.10
2022-11-03T06:43:31.565Z,1.63
2022-11-03T06:46:01.236Z,1.55
2022-11-03T06:48:29.636Z,1.30
2022-11-03T06:50:58.899Z,1.30
2022-11-03T06:53:29.727Z,1.50
2022-11-03T06:55:56.462Z,1.52
2022-11-03T06:58:26.493Z,1.20
2022-11-03T07:01:00.259Z,1.23
2022-11-03T07:03:33.629Z,1.33
2022-11-03T07:06:12.275Z,1.20
2022-11-03T07:08:43.336Z,1.48
2022-11-03T07:11:17.375Z,1.40
2022-11-03T07:13:44.545Z,1.17
2022-11-03T07:16:19.363Z,1.27
2022-11-03T07:18:47.893Z,1.45
2022-11-03T07:21:41.010Z,1.23
2022-11-03T07:24:18.990Z,1.20
2022-11-03T07:26:45.698Z,1.48
2022-11-03T07:29:20.761Z,1.30
2022-11-03T07:31:48.313Z,1.65
2022-11-03T07:34:20.946Z,1.42
2022-11-03T07:36:52.862Z,1.70
2022-11-03T07:39:22.583Z,1.35
2022-11-03T07:41:50.844Z,1.30
2022-11-03T07:44:23.418Z,1.65
2022-11-03T07:46:50.956Z,1.48
2022-11-03T07:49:29.376Z,1.30
2022-11-03T07:51:59.471Z,1.52
2022-11-03T07:54:30.673Z,1.80
2022-11-03T07:57:10.874Z,1.48
2022-11-03T08:24:08.364Z,1.30
2022-11-03T19:46:53.927Z,3.42
2022-11-03T20:08:30.690Z,1.93
2022-11-03T20:10:57.399Z,1.73
2022-11-03T20:13:28.930Z,2.20
2022-11-03T20:16:00.673Z,1.92
2022-11-03T20:18:28.508Z,1.88
2022-11-03T20:20:55.869Z,2.30
2022-11-03T20:23:25.200Z,1.80
2022-11-03T20:25:54.684Z,1.98
2022-11-03T20:28:25.322Z,1.77
2022-11-03T20:30:53.134Z,2.17
2022-11-03T20:33:22.471Z,2.28
2022-11-03T20:35:50.563Z,3.38
2022-11-03T20:38:19.693Z,3.85
2022-11-03T20:40:48.076Z,4.55
2022-11-03T20:43:26.983Z,3.63
2022-11-03T20:45:55.070Z,4.15
2022-11-03T20:48:22.410Z,4.25
2022-11-03T20:50:49.986Z,4.57
2022-11-03T20:53:22.843Z,4.50
2022-11-03T20:55:51.150Z,6.05
2022-11-03T20:58:18.404Z,6.30
2022-11-03T21:00:47.320Z,5.28
2022-11-03T21:03:44.980Z,4.60
2022-11-03T21:06:15.926Z,5.00
2022-11-03T21:08:43.834Z,5.03
2022-11-03T21:11:24.734Z,6.38
2022-11-03T21:13:53.340Z,3.85
2022-11-03T21:16:38.944Z,3.80
2022-11-03T21:19:41.434Z,4.10
2022-11-03T21:22:38.280Z,3.95
2022-11-03T21:25:19.038Z,3.80
2022-11-03T21:27:46.286Z,2.90
2022-11-03T21:30:14.866Z,3.08
2022-11-03T21:32:42.115Z,2.97
2022-11-03T21:35:16.058Z,2.92
2022-11-03T21:37:42.915Z,2.75
2022-11-03T21:40:10.457Z,2.72
2022-11-03T21:42:55.700Z,2.25
2022-11-03T21:45:22.387Z,2.10
2022-11-03T21:48:13.148Z,2.00
2022-11-03T21:50:40.989Z,1.88
2022-11-03T21:53:08.081Z,1.75
2022-11-03T21:55:35.332Z,2.03
2022-11-03T21:58:02.983Z,1.77
2022-11-03T22:00:30.299Z,2.20
2022-11-03T22:02:56.938Z,2.13
2022-11-03T22:05:23.619Z,2.30
2022-11-03T22:07:50.325Z,2.10
2022-11-03T22:10:17.989Z,1.55
2022-11-03T22:12:44.845Z,1.90
2022-11-03T22:15:31.962Z,2.25
2022-11-03T22:18:02.232Z,2.03
2022-11-03T22:20:47.478Z,2.00
2022-11-03T22:23:34.133Z,2.10
2022-11-03T22:26:19.705Z,1.90
2022-11-03T22:28:46.422Z,2.08
2022-11-03T22:31:31.829Z,2.72
2022-11-03T22:34:17.092Z,1.92
2022-11-03T22:36:46.246Z,1.80
2022-11-03T22:39:31.383Z,2.40
2022-11-03T22:42:16.607Z,2.17
2022-11-03T22:45:01.894Z,2.22
2022-11-03T22:47:28.564Z,2.00
2022-11-03T22:49:55.239Z,2.03
2022-11-03T22:52:23.269Z,1.90
2022-11-03T22:54:49.981Z,2.10
2022-11-03T22:57:16.669Z,2.53
2022-11-03T22:59:43.343Z,2.22
2022-11-03T23:02:10.141Z,2.30
2022-11-03T23:04:37.032Z,1.98
2022-11-03T23:07:03.758Z,1.92
2022-11-03T23:09:30.475Z,2.00
2022-11-03T23:11:57.127Z,2.00
2022-11-03T23:14:23.904Z,2.10
2022-11-03T23:16:50.640Z,1.60
2022-11-03T23:19:36.029Z,1.80
2022-11-03T23:22:02.690Z,2.03
2022-11-03T23:24:48.005Z,1.77
2022-11-03T23:27:14.716Z,2.17
2022-11-03T23:29:41.711Z,1.67
2022-11-03T23:32:08.733Z,1.42
2022-11-03T23:34:35.630Z,1.80
2022-11-03T23:37:02.989Z,1.58
2022-11-03T23:39:29.849Z,1.73
2022-11-03T23:41:56.593Z,1.60
2022-11-03T23:44:23.324Z,2.03
2022-11-03T23:47:08.519Z,1.67
2022-11-03T23:49:35.332Z,2.70
2022-11-03T23:52:02.114Z,2.03
2022-11-03T23:54:28.955Z,2.42
2022-11-03T23:57:33.842Z,1.90
